Time;durP1;ratioP1;P1;durP2;ratioP2;P2;SDS_P1;SDS_P2;PMS_P1;PMS_P2;Temp;Humidity;BMP_temperature;BMP_pressure;BME280_temperature;BME280_humidity;BME280_pressure;Samples;Min_cycle;Max_cycle;Signal;HPM_P1;HPM_P2
2022/04/25 00:01:06;;;;;;;0.40;0.40;;;6.60;99.90;;;;;;5063102;28;20218;-84
2022/04/25 00:03:32;;;;;;;0.40;0.40;;;6.60;99.90;;;;;;5055193;28;21089;-85
2022/04/25 00:05:57;;;;;;;0.40;0.40;;;6.60;99.90;;;;;;5061059;28;20247;-85
2022/04/25 00:08:23;;;;;;;0.40;0.40;;;6.70;99.90;;;;;;5061857;28;20186;-86
2022/04/25 00:10:48;;;;;;;0.30;0.30;;;6.60;99.90;;;;;;5067176;28;20189;-85
2022/04/25 00:13:14;;;;;;;0.30;0.30;;;6.60;99.90;;;;;;5074586;28;20193;-85
2022/04/25 00:15:41;;;;;;;0.30;0.30;;;6.60;99.90;;;;;;5059686;28;20200;-85
2022/04/25 00:18:07;;;;;;;0.27;0.27;;;6.60;99.90;;;;;;5071230;28;20478;-86
2022/04/25 00:20:32;;;;;;;0.30;0.30;;;6.50;99.90;;;;;;5065812;28;20550;-85
2022/04/25 00:23:00;;;;;;;0.37;0.37;;;6.60;99.90;;;;;;5073424;28;20978;-84
2022/04/25 00:25:28;;;;;;;0.30;0.30;;;6.50;99.90;;;;;;5065269;28;20289;-85
2022/04/25 00:27:53;;;;;;;0.30;0.30;;;6.60;99.90;;;;;;5069280;28;20947;-85
2022/04/25 00:30:19;;;;;;;0.30;0.30;;;6.60;99.90;;;;;;5062013;28;20428;-85
2022/04/25 00:32:45;;;;;;;0.40;0.40;;;6.60;99.90;;;;;;5059153;28;20263;-85
2022/04/25 00:35:10;;;;;;;0.30;0.30;;;6.60;99.90;;;;;;5073238;28;21027;-86
2022/04/25 00:37:36;;;;;;;0.40;0.40;;;6.50;99.90;;;;;;5075695;28;20189;-86
2022/04/25 00:40:02;;;;;;;0.30;0.30;;;6.50;99.90;;;;;;5076832;28;20298;-85
2022/04/25 00:42:28;;;;;;;0.30;0.30;;;6.50;99.90;;;;;;5066273;28;20233;-84
2022/04/25 00:44:53;;;;;;;0.30;0.30;;;6.50;99.90;;;;;;5065985;28;20209;-85
2022/04/25 00:47:20;;;;;;;0.30;0.30;;;6.50;99.90;;;;;;5064011;28;20962;-85
2022/04/25 00:49:45;;;;;;;0.30;0.30;;;6.50;99.90;;;;;;5061163;28;20178;-86
2022/04/25 00:52:11;;;;;;;0.40;0.40;;;6.50;99.90;;;;;;5062037;28;20442;-84
2022/04/25 00:54:36;;;;;;;0.30;0.30;;;6.50;99.90;;;;;;5052337;28;20277;-84
2022/04/25 00:57:02;;;;;;;0.40;0.40;;;6.40;99.90;;;;;;5058412;28;20267;-85
2022/04/25 00:59:29;;;;;;;0.40;0.40;;;6.50;99.90;;;;;;5065966;28;20642;-84
2022/04/25 01:01:55;;;;;;;0.40;0.40;;;6.50;99.90;;;;;;5061062;28;20777;-86
2022/04/25 01:04:21;;;;;;;0.40;0.40;;;6.50;99.90;;;;;;5062552;28;20479;-84
2022/04/25 01:06:48;;;;;;;0.30;0.30;;;6.50;99.90;;;;;;5071480;28;20457;-84
2022/04/25 01:09:14;;;;;;;0.30;0.30;;;6.50;99.90;;;;;;5068040;28;20978;-84
2022/04/25 01:11:39;;;;;;;0.40;0.40;;;6.50;99.90;;;;;;5078990;28;20478;-85
2022/04/25 01:14:16;;;;;;;0.30;0.30;;;6.50;99.90;;;;;;5080282;28;20466;-84
2022/04/25 01:16:42;;;;;;;0.33;0.33;;;6.50;99.90;;;;;;5066292;28;20182;-84
2022/04/25 01:19:07;;;;;;;0.40;0.40;;;6.40;99.90;;;;;;5065519;28;20487;-84
2022/04/25 01:21:42;;;;;;;0.30;0.30;;;6.50;99.90;;;;;;5067426;28;20497;-84
2022/04/25 01:29:38;;;;;;;0.30;0.30;;;6.40;99.90;;;;;;5062482;28;20446;-84
2022/04/25 01:32:05;;;;;;;0.30;0.30;;;6.40;99.90;;;;;;5057826;28;20443;-86
2022/04/25 01:34:32;;;;;;;0.30;0.30;;;6.40;99.90;;;;;;5075698;28;20224;-84
2022/04/25 01:36:58;;;;;;;0.30;0.30;;;6.40;99.90;;;;;;5067611;28;21036;-84
2022/04/25 01:39:24;;;;;;;0.30;0.30;;;6.40;99.90;;;;;;5060716;28;20527;-85
2022/04/25 01:41:49;;;;;;;0.30;0.30;;;6.30;99.90;;;;;;5061194;28;20182;-84
2022/04/25 01:44:15;;;;;;;0.30;0.30;;;6.30;99.90;;;;;;5068292;28;20198;-85
2022/04/25 01:46:40;;;;;;;0.30;0.30;;;6.20;99.90;;;;;;5058261;28;20186;-85
2022/04/25 01:49:06;;;;;;;0.30;0.30;;;6.10;99.90;;;;;;5059728;28;20197;-84
2022/04/25 01:51:32;;;;;;;0.30;0.30;;;6.20;99.90;;;;;;5060187;28;20272;-84
2022/04/25 01:53:58;;;;;;;0.30;0.30;;;6.20;99.90;;;;;;5068628;28;20185;-83
2022/04/25 01:56:23;;;;;;;0.30;0.30;;;6.10;99.90;;;;;;5054384;28;20451;-84
2022/04/25 01:58:48;;;;;;;0.30;0.30;;;6.10;99.90;;;;;;5061873;28;20179;-84
2022/04/25 02:01:14;;;;;;;0.40;0.40;;;6.00;99.90;;;;;;5061819;28;20695;-84
2022/04/25 02:03:41;;;;;;;0.30;0.30;;;6.10;99.90;;;;;;5074476;28;20249;-84
2022/04/25 02:06:06;;;;;;;0.30;0.30;;;6.00;99.90;;;;;;5065639;28;20217;-84
2022/04/25 02:08:32;;;;;;;0.30;0.30;;;6.00;99.90;;;;;;5070446;28;20487;-84
2022/04/25 02:13:41;;;;;;;0.30;0.30;;;6.00;99.90;;;;;;5064985;28;20205;-84
2022/04/25 02:16:08;;;;;;;0.30;0.30;;;6.00;99.90;;;;;;5063228;28;20943;-84
2022/04/25 02:18:34;;;;;;;0.30;0.30;;;5.90;99.90;;;;;;5060140;28;20225;-84
2022/04/25 02:20:59;;;;;;;0.30;0.30;;;6.00;99.90;;;;;;5073396;28;20877;-85
2022/04/25 02:23:25;;;;;;;0.30;0.30;;;5.90;99.90;;;;;;5059822;28;20253;-85
2022/04/25 02:25:50;;;;;;;0.30;0.30;;;5.90;99.90;;;;;;5066842;28;20656;-85
2022/04/25 02:28:16;;;;;;;0.30;0.30;;;5.90;99.90;;;;;;5069852;28;20194;-85
2022/04/25 02:30:41;;;;;;;0.30;0.30;;;5.80;99.90;;;;;;5054406;28;20187;-85
2022/04/25 02:33:07;;;;;;;0.30;0.30;;;5.80;99.90;;;;;;5054579;28;20844;-84
2022/04/25 02:35:32;;;;;;;0.30;0.30;;;5.90;99.90;;;;;;5066091;28;20189;-84
2022/04/25 02:37:58;;;;;;;0.30;0.30;;;5.90;99.90;;;;;;5060826;28;20565;-84
2022/04/25 02:40:24;;;;;;;0.30;0.30;;;5.90;99.90;;;;;;5064585;28;20246;-86
2022/04/25 02:42:49;;;;;;;0.30;0.30;;;5.80;99.90;;;;;;5058825;28;20611;-85
2022/04/25 02:45:14;;;;;;;0.30;0.30;;;5.80;99.90;;;;;;5058266;28;20436;-85
2022/04/25 02:47:41;;;;;;;0.30;0.30;;;5.80;99.90;;;;;;5078612;28;20196;-85
2022/04/25 02:50:07;;;;;;;0.40;0.40;;;5.90;99.90;;;;;;5072684;28;20530;-84
2022/04/25 02:52:32;;;;;;;0.30;0.30;;;5.80;99.90;;;;;;5080722;28;20459;-85
2022/04/25 02:54:58;;;;;;;0.30;0.30;;;5.90;99.90;;;;;;5056365;28;20455;-85
2022/04/25 02:57:23;;;;;;;0.30;0.30;;;5.90;99.90;;;;;;5073797;28;20194;-85
2022/04/25 02:59:49;;;;;;;0.30;0.30;;;5.90;99.90;;;;;;5054368;28;20686;-84
2022/04/25 03:02:15;;;;;;;0.30;0.30;;;5.90;99.90;;;;;;5072023;28;20220;-84
2022/04/25 03:04:40;;;;;;;0.30;0.30;;;5.80;99.90;;;;;;5062663;28;20285;-85
2022/04/25 03:07:06;;;;;;;0.30;0.30;;;5.90;99.90;;;;;;5071285;28;20448;-85
2022/04/25 03:09:31;;;;;;;0.30;0.30;;;5.80;99.90;;;;;;5067609;28;20202;-85
2022/04/25 03:11:58;;;;;;;0.30;0.30;;;5.80;99.90;;;;;;5070254;28;20181;-85
2022/04/25 03:14:26;;;;;;;0.30;0.30;;;5.70;99.90;;;;;;5081608;28;20239;-85
2022/04/25 03:16:51;;;;;;;0.30;0.30;;;5.70;99.90;;;;;;5074513;28;20436;-85
2022/04/25 03:19:18;;;;;;;0.40;0.40;;;5.70;99.90;;;;;;5062170;28;22437;-85
2022/04/25 03:21:44;;;;;;;0.30;0.30;;;5.70;99.90;;;;;;5076477;28;20190;-84
2022/04/25 03:24:09;;;;;;;0.40;0.40;;;5.70;99.90;;;;;;5075851;28;20482;-84
2022/04/25 03:26:37;;;;;;;0.30;0.30;;;5.60;99.90;;;;;;5062305;28;20623;-84
2022/04/25 03:29:02;;;;;;;0.40;0.40;;;5.60;99.90;;;;;;5071513;28;20214;-84
2022/04/25 03:31:28;;;;;;;0.30;0.30;;;5.50;99.90;;;;;;5085124;28;20486;-84
2022/04/25 03:33:54;;;;;;;0.37;0.37;;;5.50;99.90;;;;;;5067070;28;21276;-84
2022/04/25 03:36:19;;;;;;;0.40;0.40;;;5.50;99.90;;;;;;5066648;28;20598;-84
2022/04/25 03:38:45;;;;;;;0.30;0.30;;;5.50;99.90;;;;;;5081643;28;20208;-84
2022/04/25 03:41:11;;;;;;;0.30;0.30;;;5.50;99.90;;;;;;5066433;28;20918;-84
2022/04/25 03:43:36;;;;;;;0.37;0.37;;;5.50;99.90;;;;;;5058953;28;20253;-85
2022/04/25 03:46:02;;;;;;;0.40;0.40;;;5.50;99.90;;;;;;5060158;28;20195;-84
2022/04/25 03:48:27;;;;;;;0.30;0.30;;;5.50;99.90;;;;;;5071167;28;20713;-84
2022/04/25 03:50:53;;;;;;;0.30;0.30;;;5.50;99.90;;;;;;5066838;28;20194;-84
2022/04/25 03:53:18;;;;;;;0.40;0.40;;;5.40;99.90;;;;;;5067272;28;20603;-85
2022/04/25 03:58:30;;;;;;;0.37;0.37;;;5.50;99.90;;;;;;5069014;28;20572;-85
2022/04/25 04:00:56;;;;;;;0.30;0.30;;;5.50;99.90;;;;;;5058069;28;21476;-85
2022/04/25 04:03:22;;;;;;;0.40;0.40;;;5.50;99.90;;;;;;5072861;28;21100;-85
2022/04/25 04:05:48;;;;;;;0.30;0.30;;;5.50;99.90;;;;;;5066396;28;20265;-85
2022/04/25 04:08:14;;;;;;;0.40;0.40;;;5.50;99.90;;;;;;5072649;28;20212;-85
2022/04/25 04:10:40;;;;;;;0.30;0.30;;;5.50;99.90;;;;;;5067955;28;20918;-84
2022/04/25 04:13:05;;;;;;;0.40;0.40;;;5.50;99.90;;;;;;5070720;28;20181;-85
2022/04/25 04:15:31;;;;;;;0.40;0.40;;;5.50;99.90;;;;;;5061909;28;20446;-85
2022/04/25 04:17:57;;;;;;;0.30;0.30;;;5.50;99.90;;;;;;5087107;28;20232;-84
2022/04/25 04:20:23;;;;;;;0.30;0.30;;;5.40;99.90;;;;;;5063816;28;20201;-84
2022/04/25 04:22:48;;;;;;;0.30;0.30;;;5.50;99.90;;;;;;5067842;28;20518;-85
2022/04/25 04:25:14;;;;;;;0.40;0.40;;;5.40;99.90;;;;;;5064659;28;20178;-85
2022/04/25 04:27:41;;;;;;;0.40;0.40;;;5.50;99.90;;;;;;5079961;28;20178;-85
2022/04/25 04:30:11;;;;;;;0.30;0.30;;;5.50;99.90;;;;;;5063648;28;20190;-85
2022/04/25 04:32:40;;;;;;;0.30;0.30;;;5.50;99.90;;;;;;5075520;28;20443;-85
2022/04/25 04:35:08;;;;;;;0.40;0.40;;;5.60;99.90;;;;;;5078215;28;20446;-85
2022/04/25 04:37:33;;;;;;;0.30;0.30;;;5.60;99.90;;;;;;5074071;28;20443;-85
2022/04/25 04:42:44;;;;;;;0.30;0.30;;;5.70;99.90;;;;;;5064401;28;20217;-85
2022/04/25 04:45:12;;;;;;;0.30;0.30;;;5.70;99.90;;;;;;5059871;28;20439;-85
2022/04/25 04:47:39;;;;;;;0.30;0.30;;;5.70;99.90;;;;;;5076163;28;20570;-85
2022/04/25 04:50:07;;;;;;;0.30;0.30;;;5.80;99.90;;;;;;5069662;28;20447;-84
2022/04/25 04:52:33;;;;;;;0.30;0.30;;;5.80;99.90;;;;;;5075316;28;20439;-85
2022/04/25 04:54:59;;;;;;;0.30;0.30;;;5.90;99.90;;;;;;5069695;28;20451;-85
2022/04/25 04:57:24;;;;;;;0.30;0.30;;;5.90;99.90;;;;;;5065244;28;20643;-85
2022/04/25 04:59:50;;;;;;;0.40;0.40;;;5.90;99.90;;;;;;5070725;28;20226;-85
2022/04/25 05:02:17;;;;;;;0.30;0.30;;;6.00;99.90;;;;;;5047491;28;20222;-85
2022/04/25 05:04:43;;;;;;;0.30;0.30;;;6.00;99.90;;;;;;5067271;28;20189;-85
2022/04/25 05:07:09;;;;;;;0.30;0.30;;;6.00;99.90;;;;;;5074271;28;20503;-86
2022/04/25 05:09:34;;;;;;;0.30;0.30;;;6.10;99.90;;;;;;5081457;28;20435;-85
2022/04/25 05:11:59;;;;;;;0.30;0.30;;;6.10;99.90;;;;;;5074435;28;20189;-85
2022/04/25 05:14:25;;;;;;;0.30;0.30;;;6.20;99.90;;;;;;5068519;28;20185;-85
2022/04/25 05:16:51;;;;;;;0.30;0.30;;;6.30;99.90;;;;;;5063711;28;20185;-85
2022/04/25 05:19:16;;;;;;;0.33;0.33;;;6.30;99.90;;;;;;5065664;28;20993;-84
2022/04/25 05:21:42;;;;;;;0.30;0.30;;;6.40;99.90;;;;;;5076625;28;20284;-87
2022/04/25 05:24:07;;;;;;;0.40;0.40;;;6.50;99.90;;;;;;5057791;28;20684;-86
2022/04/25 05:26:33;;;;;;;0.30;0.30;;;6.50;99.90;;;;;;5068090;28;20190;-86
2022/04/25 05:28:58;;;;;;;0.30;0.30;;;6.60;99.90;;;;;;5080447;28;20190;-86
2022/04/25 05:31:24;;;;;;;0.30;0.30;;;6.70;99.90;;;;;;5073618;28;20209;-87
2022/04/25 05:33:50;;;;;;;0.40;0.40;;;6.80;99.90;;;;;;5068230;28;20189;-86
2022/04/25 05:36:15;;;;;;;0.30;0.30;;;6.80;99.90;;;;;;5071015;28;20543;-86
2022/04/25 05:38:41;;;;;;;0.30;0.30;;;6.90;99.90;;;;;;5073049;28;20190;-86
2022/04/25 05:41:09;;;;;;;0.30;0.30;;;7.00;99.90;;;;;;5067597;28;20210;-83
2022/04/25 05:43:34;;;;;;;0.30;0.30;;;7.10;99.90;;;;;;5069536;28;20237;-83
2022/04/25 05:46:00;;;;;;;0.30;0.30;;;7.20;99.90;;;;;;5076533;28;20949;-84
2022/04/25 05:54:13;;;;;;;0.30;0.30;;;7.50;99.90;;;;;;5025018;28;20484;-83
2022/04/25 05:56:39;;;;;;;0.30;0.30;;;7.60;99.90;;;;;;5051174;28;20476;-84
2022/04/25 05:59:05;;;;;;;0.30;0.30;;;7.60;99.90;;;;;;5082283;28;20185;-84
2022/04/25 06:01:30;;;;;;;0.30;0.30;;;7.70;99.90;;;;;;5064849;28;20189;-83
2022/04/25 06:03:56;;;;;;;0.30;0.30;;;7.90;99.90;;;;;;5063520;28;20689;-83
2022/04/25 06:06:26;;;;;;;0.30;0.30;;;7.90;99.90;;;;;;5062388;28;20191;-83
2022/04/25 06:08:52;;;;;;;0.20;0.20;;;7.90;99.90;;;;;;5066609;28;20193;-85
2022/04/25 06:11:17;;;;;;;0.30;0.30;;;8.00;99.90;;;;;;5066136;28;20448;-83
2022/04/25 06:13:44;;;;;;;0.30;0.30;;;8.00;99.90;;;;;;5063382;28;20436;-84
2022/04/25 06:16:10;;;;;;;0.30;0.30;;;8.10;99.90;;;;;;5069816;28;20813;-84
2022/04/25 06:18:36;;;;;;;0.30;0.30;;;8.20;99.90;;;;;;5064338;28;20499;-83
2022/04/25 06:21:02;;;;;;;0.20;0.20;;;8.20;99.90;;;;;;5060266;28;20479;-83
2022/04/25 06:23:27;;;;;;;0.30;0.30;;;8.20;99.90;;;;;;5064134;28;20275;-84
2022/04/25 06:25:53;;;;;;;0.30;0.30;;;8.30;99.90;;;;;;5060629;28;20178;-84
2022/04/25 06:28:18;;;;;;;0.30;0.30;;;8.40;99.90;;;;;;5056870;28;20208;-83
2022/04/25 06:30:44;;;;;;;0.30;0.30;;;8.50;99.90;;;;;;5064611;28;20196;-84
2022/04/25 06:33:10;;;;;;;0.20;0.20;;;8.50;99.90;;;;;;5065841;28;20185;-84
2022/04/25 06:35:36;;;;;;;0.30;0.30;;;8.50;99.90;;;;;;5057653;28;20277;-84
2022/04/25 06:38:01;;;;;;;0.30;0.30;;;8.50;99.90;;;;;;5063718;28;20531;-84
2022/04/25 06:40:27;;;;;;;0.20;0.20;;;8.70;99.90;;;;;;5090772;28;20166;-84
2022/04/25 06:42:53;;;;;;;0.20;0.20;;;8.70;99.90;;;;;;5074785;28;20635;-85
2022/04/25 06:45:19;;;;;;;0.30;0.30;;;8.80;99.90;;;;;;5069144;28;20232;-85
2022/04/25 06:47:45;;;;;;;0.23;0.23;;;8.80;99.90;;;;;;5072153;28;20782;-85
2022/04/25 06:50:11;;;;;;;0.20;0.20;;;8.90;99.90;;;;;;5065303;28;20295;-84
2022/04/25 06:52:37;;;;;;;0.20;0.20;;;9.00;99.90;;;;;;5061471;28;20189;-84
2022/04/25 06:55:05;;;;;;;0.20;0.20;;;9.20;99.90;;;;;;5068232;28;20440;-85
2022/04/25 06:57:33;;;;;;;0.20;0.20;;;9.20;99.90;;;;;;5072663;28;20642;-85
2022/04/25 06:59:59;;;;;;;0.20;0.20;;;9.30;99.90;;;;;;5063154;28;20475;-86
2022/04/25 07:02:25;;;;;;;0.30;0.30;;;9.40;99.90;;;;;;5070368;28;20490;-86
2022/04/25 07:04:50;;;;;;;0.20;0.20;;;9.50;99.90;;;;;;5063163;28;20496;-84
2022/04/25 07:07:17;;;;;;;0.20;0.20;;;9.60;99.90;;;;;;5068365;28;20567;-85
2022/04/25 07:09:43;;;;;;;0.20;0.20;;;9.60;99.90;;;;;;5078827;28;20182;-86
2022/04/25 07:12:09;;;;;;;0.20;0.20;;;9.60;99.90;;;;;;5078012;28;20431;-85
2022/04/25 07:14:34;;;;;;;0.20;0.20;;;9.80;99.90;;;;;;5078729;28;20194;-85
2022/04/25 07:17:02;;;;;;;0.20;0.20;;;9.80;99.90;;;;;;5071570;28;20548;-85
2022/04/25 07:19:28;;;;;;;0.20;0.20;;;9.70;99.90;;;;;;5073277;28;20222;-85
2022/04/25 07:30:06;;;;;;;0.20;0.20;;;10.10;99.90;;;;;;5070114;28;20466;-84
2022/04/25 07:32:40;;;;;;;0.20;0.20;;;10.10;99.90;;;;;;5062669;28;20484;-85
2022/04/25 07:35:07;;;;;;;0.20;0.20;;;10.10;99.90;;;;;;5057922;28;20174;-86
2022/04/25 07:37:35;;;;;;;0.20;0.20;;;10.50;99.90;;;;;;5076789;28;20536;-86
2022/04/25 07:40:02;;;;;;;0.20;0.20;;;10.60;99.90;;;;;;5080969;28;20576;-85
2022/04/25 07:42:29;;;;;;;0.20;0.20;;;10.50;99.90;;;;;;5076083;28;20471;-85
2022/04/25 07:44:55;;;;;;;0.20;0.20;;;10.30;99.90;;;;;;5084730;28;20540;-86
2022/04/25 07:47:20;;;;;;;0.20;0.20;;;10.50;99.90;;;;;;5081114;28;20587;-87
2022/04/25 07:49:46;;;;;;;0.10;0.10;;;10.60;99.90;;;;;;5074229;28;20256;-86
2022/04/25 07:52:11;;;;;;;0.20;0.20;;;10.70;99.90;;;;;;5060024;28;20194;-85
2022/04/25 07:54:37;;;;;;;0.10;0.10;;;10.70;99.90;;;;;;5065406;28;20186;-86
2022/04/25 07:57:06;;;;;;;0.10;0.10;;;10.80;99.90;;;;;;5064918;28;20192;-85
2022/04/25 07:59:32;;;;;;;0.10;0.10;;;10.90;99.90;;;;;;5072944;28;20264;-85
2022/04/25 08:01:58;;;;;;;0.10;0.10;;;11.00;99.90;;;;;;5069801;28;20878;-85
2022/04/25 08:04:23;;;;;;;0.10;0.10;;;11.30;99.90;;;;;;5059326;28;20572;-85
2022/04/25 08:06:49;;;;;;;0.10;0.10;;;11.20;99.90;;;;;;5065687;28;20262;-86
2022/04/25 08:09:16;;;;;;;0.10;0.10;;;11.30;99.90;;;;;;5078845;28;20232;-86
2022/04/25 08:11:42;;;;;;;0.10;0.10;;;11.40;99.90;;;;;;5075807;28;20182;-87
2022/04/25 08:19:37;;;;;;;0.10;0.10;;;11.70;99.90;;;;;;5064646;28;20988;-86
2022/04/25 08:22:06;;;;;;;0.10;0.10;;;11.80;99.90;;;;;;5088275;28;20448;-86
2022/04/25 08:24:33;;;;;;;0.10;0.10;;;11.80;99.90;;;;;;5079262;28;20443;-85
2022/04/25 08:26:58;;;;;;;0.10;0.10;;;12.10;99.90;;;;;;5071014;28;20553;-85
2022/04/25 08:29:24;;;;;;;0.10;0.10;;;12.20;99.90;;;;;;5087927;28;20537;-84
2022/04/25 08:31:50;;;;;;;0.10;0.10;;;12.40;99.90;;;;;;5069224;28;20417;-85
2022/04/25 08:34:16;;;;;;;0.10;0.10;;;12.40;99.90;;;;;;5076988;28;20188;-86
2022/04/25 08:36:42;;;;;;;0.10;0.10;;;12.30;99.90;;;;;;5051325;28;21025;-86
2022/04/25 08:39:09;;;;;;;0.10;0.10;;;12.40;99.90;;;;;;5058248;28;20269;-86
2022/04/25 08:41:45;;;;;;;0.10;0.10;;;12.60;99.90;;;;;;5062546;28;20182;-86
2022/04/25 08:44:15;;;;;;;0.07;0.07;;;12.90;99.90;;;;;;5065602;28;21045;-87
2022/04/25 08:46:42;;;;;;;0.10;0.10;;;12.90;99.90;;;;;;5067305;28;20927;-86
2022/04/25 08:49:11;;;;;;;0.10;0.10;;;13.10;99.90;;;;;;5061221;28;20506;-86
2022/04/25 08:51:38;;;;;;;0.10;0.10;;;12.90;99.90;;;;;;5065879;28;20466;-85
2022/04/25 08:54:08;;;;;;;0.10;0.10;;;12.80;99.90;;;;;;5067978;28;20440;-86
2022/04/25 08:56:35;;;;;;;0.10;0.10;;;12.90;99.90;;;;;;5078349;28;20481;-87
2022/04/25 08:59:02;;;;;;;0.10;0.10;;;13.10;99.90;;;;;;5060011;28;20449;-86
2022/04/25 09:01:28;;;;;;;0.07;0.07;;;13.10;99.90;;;;;;5050628;28;20445;-86
2022/04/25 09:03:54;;;;;;;0.00;0.00;;;13.20;99.90;;;;;;5060428;28;20475;-87
2022/04/25 09:06:19;;;;;;;0.10;0.10;;;13.30;99.90;;;;;;5071177;28;20243;-86
2022/04/25 09:08:45;;;;;;;0.00;0.00;;;13.50;99.90;;;;;;5082089;28;20747;-87
2022/04/25 09:13:56;;;;;;;0.07;0.07;;;14.00;99.90;;;;;;5055789;28;20208;-87
2022/04/25 09:16:21;;;;;;;0.07;0.07;;;13.80;99.90;;;;;;5072110;28;20459;-86
2022/04/25 09:18:47;;;;;;;0.00;0.00;;;14.10;99.90;;;;;;5059982;28;21080;-85
2022/04/25 09:21:14;;;;;;;0.10;0.10;;;14.30;99.90;;;;;;5079799;28;20719;-86
2022/04/25 09:23:40;;;;;;;0.00;0.00;;;14.60;99.90;;;;;;5068742;28;20225;-87
2022/04/25 09:26:16;;;;;;;0.00;0.00;;;14.80;99.90;;;;;;5086740;28;21088;-87
2022/04/25 09:28:54;;;;;;;0.00;0.00;;;14.60;99.90;;;;;;5063405;28;20557;-87
2022/04/25 09:31:22;;;;;;;0.00;0.00;;;14.70;99.90;;;;;;5056785;28;20498;-87
2022/04/25 09:33:49;;;;;;;0.00;0.00;;;14.90;99.90;;;;;;5060083;28;20453;-88
2022/04/25 09:36:14;;;;;;;0.00;0.00;;;15.00;99.90;;;;;;5063744;28;20530;-89
2022/04/25 09:38:41;;;;;;;0.00;0.00;;;15.00;99.90;;;;;;5068775;28;20447;-89
2022/04/25 09:41:12;;;;;;;0.00;0.00;;;15.00;99.90;;;;;;5066523;28;20444;-87
2022/04/25 09:43:40;;;;;;;0.00;0.00;;;15.10;99.90;;;;;;5061921;28;20501;-87
2022/04/25 09:46:10;;;;;;;0.00;0.00;;;15.40;99.90;;;;;;5069458;28;20476;-88
2022/04/25 09:48:37;;;;;;;0.00;0.00;;;15.30;99.90;;;;;;5069235;28;20853;-87
2022/04/25 09:51:05;;;;;;;0.00;0.00;;;15.40;99.90;;;;;;5086709;28;20516;-87
2022/04/25 09:53:50;;;;;;;0.00;0.00;;;15.40;99.90;;;;;;5079228;28;20611;-87
2022/04/25 09:56:20;;;;;;;0.10;0.10;;;15.50;99.90;;;;;;5081362;28;20503;-86
2022/04/25 09:59:02;;;;;;;0.10;0.10;;;15.40;99.90;;;;;;5075334;28;20441;-88
2022/04/25 10:01:29;;;;;;;0.10;0.10;;;15.70;99.90;;;;;;5062869;28;20442;-88
2022/04/25 10:03:55;;;;;;;0.10;0.10;;;15.70;99.90;;;;;;5080799;28;20468;-90
2022/04/25 10:06:23;;;;;;;0.10;0.10;;;16.20;99.90;;;;;;5064818;28;20444;-89
2022/04/25 10:08:50;;;;;;;0.10;0.10;;;16.20;99.90;;;;;;5069345;28;20432;-90
2022/04/25 10:11:19;;;;;;;0.10;0.10;;;16.20;99.90;;;;;;5075932;28;20442;-90
2022/04/25 10:13:47;;;;;;;0.10;0.10;;;16.40;99.90;;;;;;5080183;28;20461;-91
2022/04/25 10:16:12;;;;;;;0.10;0.10;;;16.20;98.90;;;;;;5071897;28;20448;-86
2022/04/25 10:18:39;;;;;;;0.10;0.10;;;16.30;99.10;;;;;;5066145;28;20509;-88
2022/04/25 10:21:07;;;;;;;0.10;0.10;;;16.50;99.50;;;;;;5054335;28;20458;-86
2022/04/25 10:23:33;;;;;;;0.10;0.10;;;16.60;98.60;;;;;;5084637;28;20486;-88
2022/04/25 10:25:59;;;;;;;0.10;0.10;;;16.70;99.90;;;;;;5075790;28;20792;-89
2022/04/25 10:28:30;;;;;;;0.10;0.10;;;16.90;98.10;;;;;;5067695;28;20324;-89
2022/04/25 10:31:05;;;;;;;0.10;0.00;;;17.00;97.80;;;;;;5064482;28;20532;-89
2022/04/25 10:33:51;;;;;;;0.10;0.10;;;17.60;99.10;;;;;;5073704;28;20416;-89
2022/04/25 10:36:38;;;;;;;0.10;0.10;;;17.70;96.60;;;;;;5071051;28;20448;-90
2022/04/25 10:39:20;;;;;;;0.10;0.00;;;17.50;96.00;;;;;;5070990;28;20443;-88
2022/04/25 10:44:42;;;;;;;0.10;0.00;;;17.60;98.30;;;;;;5064889;28;20455;-90
2022/04/25 10:47:11;;;;;;;0.10;0.00;;;17.70;97.80;;;;;;5071985;28;20459;-89
2022/04/25 10:49:52;;;;;;;0.10;0.10;;;18.10;96.20;;;;;;5072148;28;20447;-89
2022/04/25 10:52:53;;;;;;;0.10;0.00;;;18.50;95.90;;;;;;5066206;28;20454;-93
2022/04/25 10:55:36;;;;;;;0.10;0.00;;;18.30;94.80;;;;;;5070998;28;20486;-88
2022/04/25 10:58:01;;;;;;;0.10;0.00;;;18.40;96.20;;;;;;5064035;28;20528;-88
2022/04/25 11:00:36;;;;;;;0.10;0.00;;;18.80;95.40;;;;;;5072480;28;20879;-89
2022/04/25 11:03:16;;;;;;;0.10;0.00;;;19.20;94.50;;;;;;5065778;28;20216;-90
2022/04/25 11:05:43;;;;;;;0.10;0.00;;;18.70;94.20;;;;;;5068358;28;20447;-89
2022/04/25 11:08:23;;;;;;;0.10;0.00;;;19.20;93.80;;;;;;5062096;28;20468;-88
2022/04/25 11:11:03;;;;;;;0.10;0.00;;;19.10;92.00;;;;;;5071701;28;20438;-89
2022/04/25 11:13:31;;;;;;;0.10;0.00;;;18.70;92.00;;;;;;5070136;28;20447;-87
2022/04/25 11:16:18;;;;;;;0.10;0.00;;;18.60;91.70;;;;;;5071257;28;20475;-89
2022/04/25 11:18:45;;;;;;;0.10;0.00;;;18.10;90.50;;;;;;5055525;28;20483;-89
2022/04/25 11:21:28;;;;;;;0.10;0.00;;;18.80;92.60;;;;;;5058534;28;20472;-90
2022/04/25 11:23:54;;;;;;;0.10;0.00;;;18.90;91.50;;;;;;5065210;28;20829;-89
2022/04/25 11:26:23;;;;;;;0.10;0.00;;;19.30;91.00;;;;;;5065503;28;20959;-88
2022/04/25 11:28:54;;;;;;;0.10;0.00;;;19.20;92.60;;;;;;5066617;28;20190;-89
2022/04/25 11:31:24;;;;;;;0.10;0.00;;;19.40;90.20;;;;;;5068159;28;20444;-86
2022/04/25 11:33:52;;;;;;;0.10;0.00;;;19.60;90.30;;;;;;5058008;28;20436;-86
2022/04/25 11:36:19;;;;;;;0.10;0.00;;;19.80;90.40;;;;;;5058734;28;20428;-83
2022/04/25 11:41:33;;;;;;;0.10;0.00;;;19.90;90.30;;;;;;5068116;28;20982;-90
2022/04/25 11:43:58;;;;;;;0.10;0.00;;;19.80;91.00;;;;;;5065350;28;20480;-89
2022/04/25 11:46:25;;;;;;;0.10;0.00;;;19.80;89.40;;;;;;5082447;28;20451;-89
2022/04/25 11:48:52;;;;;;;0.10;0.00;;;19.90;91.00;;;;;;5076964;28;20663;-92
2022/04/25 11:51:29;;;;;;;0.10;0.00;;;19.80;90.50;;;;;;5067401;28;20598;-88
2022/04/25 11:53:59;;;;;;;0.10;0.00;;;20.00;88.60;;;;;;5057885;28;21256;-88
2022/04/25 11:56:29;;;;;;;0.10;0.00;;;20.40;90.70;;;;;;5076403;28;20432;-88
2022/04/25 11:58:56;;;;;;;0.10;0.00;;;20.90;90.90;;;;;;5074220;28;21105;-88
2022/04/25 12:01:38;;;;;;;0.10;0.00;;;20.80;88.80;;;;;;5067611;28;20476;-89
2022/04/25 12:04:23;;;;;;;0.10;0.00;;;20.50;87.30;;;;;;5053826;28;20983;-89
2022/04/25 12:06:56;;;;;;;0.10;0.00;;;20.60;90.00;;;;;;5063865;28;20486;-89
2022/04/25 12:15:35;;;;;;;0.10;0.00;;;20.70;87.10;;;;;;5079008;28;20438;-86
2022/04/25 12:18:17;;;;;;;0.10;0.00;;;20.90;86.00;;;;;;5074712;28;20880;-89
2022/04/25 12:20:45;;;;;;;0.10;0.00;;;20.60;85.60;;;;;;5066854;28;20529;-88
2022/04/25 12:23:24;;;;;;;0.10;0.00;;;20.10;81.40;;;;;;5058669;28;21182;-88
2022/04/25 12:25:50;;;;;;;0.10;0.00;;;20.80;86.40;;;;;;5068041;28;20575;-88
2022/04/25 12:28:19;;;;;;;0.10;0.00;;;21.10;84.10;;;;;;5076905;28;20428;-90
2022/04/25 12:30:56;;;;;;;0.10;0.00;;;21.40;83.80;;;;;;5069321;28;20452;-90
2022/04/25 12:33:32;;;;;;;0.10;0.00;;;21.20;78.60;;;;;;5071054;28;20443;-91
2022/04/25 12:36:20;;;;;;;0.10;0.00;;;21.00;85.10;;;;;;5067326;28;20524;-90
2022/04/25 12:38:51;;;;;;;0.10;0.00;;;21.00;84.70;;;;;;5068625;28;20715;-90
2022/04/25 12:41:32;;;;;;;0.10;0.00;;;20.70;80.70;;;;;;5070920;28;20441;-90
2022/04/25 12:44:11;;;;;;;0.10;0.00;;;20.60;84.00;;;;;;5064814;28;20547;-90
2022/04/25 12:46:55;;;;;;;0.10;0.00;;;20.90;80.70;;;;;;5092814;28;20549;-91
2022/04/25 12:49:37;;;;;;;0.10;0.00;;;20.90;82.30;;;;;;5060960;28;20691;-90
2022/04/25 12:52:05;;;;;;;0.10;0.00;;;21.70;80.50;;;;;;5070027;28;20789;-91
2022/04/25 12:54:32;;;;;;;0.10;0.00;;;21.70;81.60;;;;;;5068640;28;20445;-91
2022/04/25 12:57:16;;;;;;;0.10;0.00;;;21.70;83.60;;;;;;5066468;28;20460;-90
2022/04/25 12:59:44;;;;;;;0.00;0.00;;;20.60;79.80;;;;;;5063785;28;20448;-91
2022/04/25 13:02:15;;;;;;;0.00;0.00;;;21.00;81.50;;;;;;5057419;28;20526;-91
2022/04/25 13:04:54;;;;;;;0.00;0.00;;;20.90;80.60;;;;;;5062319;28;20458;-89
2022/04/25 13:07:37;;;;;;;0.00;0.00;;;21.10;83.30;;;;;;5069301;28;20451;-90
2022/04/25 13:10:10;;;;;;;0.00;0.00;;;21.70;80.10;;;;;;5056595;28;20432;-90
2022/04/25 13:12:39;;;;;;;0.00;0.00;;;20.50;79.00;;;;;;5068107;28;20502;-90
2022/04/25 13:15:06;;;;;;;0.00;0.00;;;21.40;81.90;;;;;;5059471;28;20436;-90
2022/04/25 13:17:32;;;;;;;0.00;0.00;;;21.20;79.60;;;;;;5063872;28;20939;-91
2022/04/25 13:19:58;;;;;;;0.00;0.00;;;21.20;79.70;;;;;;5063149;28;20514;-91
2022/04/25 13:22:24;;;;;;;0.00;0.00;;;21.10;78.70;;;;;;5059389;28;20472;-91
2022/04/25 13:24:50;;;;;;;0.00;0.00;;;21.30;80.40;;;;;;5059360;28;20213;-94
2022/04/25 13:27:17;;;;;;;0.00;0.00;;;20.60;77.10;;;;;;5066394;28;21249;-91
2022/04/25 13:29:42;;;;;;;0.00;0.00;;;21.20;83.00;;;;;;5071011;28;21013;-91
2022/04/25 13:32:11;;;;;;;0.00;0.00;;;20.70;77.30;;;;;;5071127;28;20417;-91
2022/04/25 13:34:36;;;;;;;0.00;0.00;;;21.00;78.20;;;;;;5065004;28;20934;-90
2022/04/25 13:37:02;;;;;;;0.00;0.00;;;20.60;80.20;;;;;;5065583;28;20453;-92
2022/04/25 13:39:29;;;;;;;0.00;0.00;;;20.50;80.30;;;;;;5067340;28;20190;-90
2022/04/25 13:41:55;;;;;;;0.00;0.00;;;20.80;79.70;;;;;;5054152;28;20277;-90
2022/04/25 13:44:21;;;;;;;0.00;0.00;;;20.80;80.50;;;;;;5065173;28;20629;-91